Time;durP1;ratioP1;P1;durP2;ratioP2;P2;SDS_P1;SDS_P2;PMS_P1;PMS_P2;Temp;Humidity;BMP_temperature;BMP_pressure;BME280_temperature;BME280_humidity;BME280_pressure;Samples;Min_cycle;Max_cycle;Signal;HPM_P1;HPM_P2
2022/07/13 00:01:45;;;;;;;3.83;3.40;;;20.50;99.90;;;;;;5029905;28;20417;-44
2022/07/13 00:04:11;;;;;;;4.53;4.13;;;20.60;99.90;;;;;;5029900;28;20202;-43
2022/07/13 00:06:37;;;;;;;3.90;3.60;;;20.60;99.90;;;;;;5029201;28;20221;-44
2022/07/13 00:09:03;;;;;;;4.10;3.80;;;20.60;99.90;;;;;;5029701;28;20833;-43
2022/07/13 00:11:28;;;;;;;3.77;3.47;;;20.60;99.90;;;;;;5029912;28;20293;-44
2022/07/13 00:13:54;;;;;;;5.03;3.80;;;20.70;99.90;;;;;;5031831;28;20516;-43
2022/07/13 00:16:20;;;;;;;4.10;3.60;;;20.60;99.90;;;;;;5033846;28;20272;-43
2022/07/13 00:18:46;;;;;;;3.50;3.30;;;20.60;99.90;;;;;;5032315;28;20214;-43
2022/07/13 00:21:11;;;;;;;3.67;3.37;;;20.60;99.90;;;;;;5041763;28;20185;-44
2022/07/13 00:23:37;;;;;;;4.30;3.83;;;20.60;99.90;;;;;;5039919;28;20187;-43
2022/07/13 00:26:03;;;;;;;4.23;3.90;;;20.50;99.90;;;;;;5044276;28;20732;-44
2022/07/13 00:28:28;;;;;;;4.00;3.70;;;20.50;99.90;;;;;;5034360;28;20194;-45
2022/07/13 00:30:54;;;;;;;3.97;3.67;;;20.50;99.90;;;;;;5033614;28;20197;-43
2022/07/13 00:33:20;;;;;;;3.83;3.50;;;20.60;99.90;;;;;;5033409;28;20285;-43
2022/07/13 00:35:45;;;;;;;4.17;3.77;;;20.60;99.90;;;;;;5033463;28;20222;-44
2022/07/13 00:38:11;;;;;;;3.50;3.20;;;20.60;99.90;;;;;;5032721;28;20191;-43
2022/07/13 00:40:37;;;;;;;4.30;3.70;;;20.60;99.90;;;;;;5033569;28;20197;-43
2022/07/13 00:43:02;;;;;;;4.27;3.87;;;20.60;99.90;;;;;;5033389;28;20202;-44
2022/07/13 00:45:29;;;;;;;4.00;3.60;;;20.60;99.90;;;;;;5033482;28;20198;-43
2022/07/13 00:47:54;;;;;;;5.73;4.07;;;20.70;99.90;;;;;;5032657;28;20277;-43
2022/07/13 00:50:20;;;;;;;5.93;4.30;;;20.70;99.90;;;;;;5035213;28;20572;-43
2022/07/13 00:52:47;;;;;;;3.93;3.50;;;20.70;99.90;;;;;;5034725;28;20201;-44
2022/07/13 00:55:13;;;;;;;4.40;4.00;;;20.80;99.90;;;;;;5033234;28;20507;-43
2022/07/13 00:57:39;;;;;;;4.70;4.30;;;20.80;99.90;;;;;;5032342;28;20491;-46
2022/07/13 01:00:09;;;;;;;4.57;4.17;;;20.70;99.90;;;;;;5033278;28;20896;-44
2022/07/13 01:02:36;;;;;;;4.47;4.17;;;20.70;99.90;;;;;;5032907;28;20190;-42
2022/07/13 01:05:02;;;;;;;4.67;4.27;;;20.70;99.90;;;;;;5032811;28;20421;-43
2022/07/13 01:07:30;;;;;;;5.00;4.60;;;20.60;99.90;;;;;;5032125;28;20432;-44
2022/07/13 01:10:00;;;;;;;5.17;4.77;;;20.50;99.90;;;;;;5033075;28;20424;-43
2022/07/13 01:12:30;;;;;;;5.33;4.10;;;20.50;99.90;;;;;;5032720;28;20417;-46
2022/07/13 01:14:58;;;;;;;5.03;4.47;;;20.40;99.90;;;;;;5032881;28;20417;-44
2022/07/13 01:17:25;;;;;;;5.50;4.90;;;20.40;99.90;;;;;;5038580;28;20468;-46
2022/07/13 01:19:52;;;;;;;5.00;4.60;;;20.40;99.90;;;;;;5051503;28;20539;-43
2022/07/13 01:22:21;;;;;;;4.53;4.13;;;20.40;99.90;;;;;;5052495;28;20508;-45
2022/07/13 01:24:49;;;;;;;5.50;5.00;;;20.40;99.90;;;;;;5032232;28;20424;-44
2022/07/13 01:27:15;;;;;;;4.73;4.33;;;20.30;99.90;;;;;;5051888;28;20779;-43
2022/07/13 01:29:41;;;;;;;5.47;5.00;;;20.30;99.90;;;;;;5052435;28;20420;-44
2022/07/13 01:32:07;;;;;;;5.60;5.00;;;20.30;99.90;;;;;;5052214;28;20439;-46
2022/07/13 01:34:33;;;;;;;4.80;4.40;;;20.30;99.90;;;;;;5052407;28;20525;-46
2022/07/13 01:37:00;;;;;;;5.40;5.00;;;20.20;99.90;;;;;;5051718;28;20479;-43
2022/07/13 01:39:26;;;;;;;5.20;4.70;;;20.20;99.90;;;;;;5052280;28;20190;-43
2022/07/13 01:41:52;;;;;;;5.27;4.80;;;20.10;99.90;;;;;;5052236;28;20477;-44
2022/07/13 01:44:18;;;;;;;4.23;3.83;;;20.10;99.90;;;;;;5052073;28;20853;-43
2022/07/13 01:46:43;;;;;;;4.90;4.50;;;20.10;99.90;;;;;;5051359;28;20839;-45
2022/07/13 01:49:10;;;;;;;5.70;4.73;;;20.10;99.90;;;;;;5051932;28;20503;-43
2022/07/13 01:51:35;;;;;;;5.53;5.00;;;20.00;99.90;;;;;;5044045;28;20202;-44
2022/07/13 01:54:01;;;;;;;6.10;5.60;;;20.00;99.90;;;;;;5032025;28;20429;-43
2022/07/13 01:56:27;;;;;;;7.30;6.17;;;20.00;99.90;;;;;;5031949;28;20225;-44
2022/07/13 01:58:53;;;;;;;5.50;5.00;;;20.10;99.90;;;;;;5031424;28;20190;-43
2022/07/13 02:01:19;;;;;;;5.47;4.97;;;20.10;99.90;;;;;;5031615;28;20779;-44
2022/07/13 02:03:44;;;;;;;6.30;5.70;;;20.10;99.90;;;;;;5032130;28;20182;-44
2022/07/13 02:06:10;;;;;;;5.80;5.30;;;20.10;99.90;;;;;;5031796;28;20469;-44
2022/07/13 02:08:36;;;;;;;10.93;5.40;;;20.10;99.90;;;;;;5031239;28;20257;-44
2022/07/13 02:11:03;;;;;;;6.20;5.70;;;20.20;99.90;;;;;;5031849;28;20433;-43
2022/07/13 02:13:28;;;;;;;5.43;4.93;;;20.20;99.90;;;;;;5031810;28;20724;-43
2022/07/13 02:15:54;;;;;;;5.23;4.83;;;20.10;99.90;;;;;;5031317;28;20461;-47
2022/07/13 02:18:20;;;;;;;5.07;4.60;;;20.20;99.90;;;;;;5030416;28;20270;-43
2022/07/13 02:20:46;;;;;;;4.60;4.30;;;20.10;99.90;;;;;;5032732;28;20430;-43
2022/07/13 02:23:12;;;;;;;5.00;4.50;;;20.20;99.90;;;;;;5041788;28;20436;-43
2022/07/13 02:25:38;;;;;;;5.40;5.00;;;20.20;99.90;;;;;;5038405;28;20189;-45
2022/07/13 02:28:05;;;;;;;4.60;4.20;;;20.30;99.90;;;;;;5050857;28;20240;-44
2022/07/13 02:30:30;;;;;;;5.10;4.70;;;20.30;99.90;;;;;;5051076;28;20186;-43
2022/07/13 02:32:56;;;;;;;4.87;4.50;;;20.30;99.90;;;;;;5051541;28;20527;-48
2022/07/13 02:35:22;;;;;;;5.57;5.07;;;20.20;99.90;;;;;;5050749;28;20264;-44
2022/07/13 02:37:48;;;;;;;5.40;4.90;;;20.10;99.90;;;;;;5050188;28;20494;-43
2022/07/13 02:40:14;;;;;;;5.80;4.97;;;20.20;99.90;;;;;;5051360;28;20231;-44
2022/07/13 02:42:40;;;;;;;6.43;5.07;;;20.10;99.90;;;;;;5050900;28;20544;-44
2022/07/13 02:45:06;;;;;;;6.60;5.30;;;20.10;99.90;;;;;;5051151;28;21010;-43
2022/07/13 02:47:32;;;;;;;5.87;5.30;;;19.90;99.90;;;;;;5050223;28;20459;-44
2022/07/13 02:49:58;;;;;;;6.10;5.60;;;19.80;99.90;;;;;;5051191;28;20463;-46
2022/07/13 02:52:23;;;;;;;5.27;4.77;;;19.70;99.90;;;;;;5036043;28;20198;-43
2022/07/13 02:54:49;;;;;;;5.07;4.67;;;19.70;99.90;;;;;;5031102;28;20317;-44
2022/07/13 02:57:15;;;;;;;6.03;5.43;;;19.70;99.90;;;;;;5030058;28;20213;-43
2022/07/13 02:59:41;;;;;;;5.73;5.23;;;19.70;99.90;;;;;;5030762;28;20186;-43
2022/07/13 03:02:07;;;;;;;6.07;5.47;;;19.70;99.90;;;;;;5030666;28;20190;-46
2022/07/13 03:04:33;;;;;;;5.73;5.23;;;19.70;99.90;;;;;;5031109;28;20194;-43
2022/07/13 03:06:59;;;;;;;5.53;5.03;;;19.70;99.90;;;;;;5029872;28;20469;-45
2022/07/13 03:09:25;;;;;;;6.20;5.70;;;19.70;99.90;;;;;;5029621;28;20965;-43
2022/07/13 03:11:52;;;;;;;7.17;5.67;;;19.80;99.90;;;;;;5030439;28;20457;-46
2022/07/13 03:14:18;;;;;;;6.70;6.10;;;19.80;99.90;;;;;;5030592;28;20225;-44
2022/07/13 03:16:44;;;;;;;5.87;5.37;;;19.80;99.90;;;;;;5029776;28;21175;-43
2022/07/13 03:19:10;;;;;;;8.80;6.07;;;19.90;99.90;;;;;;5029873;28;20571;-45
2022/07/13 03:21:36;;;;;;;6.07;5.57;;;19.90;99.90;;;;;;5043064;28;20184;-43
2022/07/13 03:24:03;;;;;;;5.90;5.40;;;20.00;99.90;;;;;;5030366;28;20413;-43
2022/07/13 03:26:29;;;;;;;5.80;5.30;;;20.00;99.90;;;;;;5044339;28;20768;-43
2022/07/13 03:28:54;;;;;;;7.27;5.47;;;20.10;99.90;;;;;;5049375;28;20451;-44
2022/07/13 03:31:20;;;;;;;5.70;5.20;;;20.00;99.90;;;;;;5050213;28;20424;-46
2022/07/13 03:33:46;;;;;;;8.33;5.90;;;19.90;99.90;;;;;;5050200;28;20204;-42
2022/07/13 03:36:12;;;;;;;6.50;5.90;;;19.80;99.90;;;;;;5049970;28;20209;-43
2022/07/13 03:38:38;;;;;;;6.10;5.50;;;19.80;99.90;;;;;;5049544;28;20185;-44
2022/07/13 03:41:04;;;;;;;6.60;5.50;;;19.70;99.90;;;;;;5050024;28;20461;-46
2022/07/13 03:43:30;;;;;;;6.73;6.10;;;19.70;99.90;;;;;;5049688;28;20436;-43
2022/07/13 03:45:56;;;;;;;6.30;5.70;;;19.70;99.90;;;;;;5050014;28;20432;-44
2022/07/13 03:48:22;;;;;;;5.80;5.40;;;19.70;99.90;;;;;;5049112;28;20220;-43
2022/07/13 03:50:48;;;;;;;6.60;5.30;;;19.70;99.90;;;;;;5047893;28;20193;-45
2022/07/13 03:53:14;;;;;;;5.07;4.67;;;19.70;99.90;;;;;;5030163;28;20194;-46
2022/07/13 03:55:41;;;;;;;5.83;5.33;;;19.60;99.90;;;;;;5029911;28;20417;-44
2022/07/13 03:58:07;;;;;;;6.30;5.57;;;19.60;99.90;;;;;;5029176;28;20441;-43
2022/07/13 04:00:33;;;;;;;5.00;4.60;;;19.60;99.90;;;;;;5029971;28;20516;-44
2022/07/13 04:02:59;;;;;;;5.93;5.43;;;19.60;99.90;;;;;;5029880;28;20504;-44
2022/07/13 04:05:25;;;;;;;7.60;5.50;;;19.60;99.90;;;;;;5029758;28;20570;-43
2022/07/13 04:07:51;;;;;;;5.30;4.80;;;19.60;99.90;;;;;;5029125;28;20441;-44
2022/07/13 04:10:18;;;;;;;5.17;4.67;;;19.60;99.90;;;;;;5029851;28;20425;-47
2022/07/13 04:12:45;;;;;;;5.60;5.20;;;19.70;99.90;;;;;;5029712;28;20488;-44
2022/07/13 04:15:11;;;;;;;5.80;5.30;;;19.70;99.90;;;;;;5029815;28;20940;-43
2022/07/13 04:17:37;;;;;;;5.80;5.30;;;19.70;99.90;;;;;;5029139;28;20477;-44
2022/07/13 04:20:04;;;;;;;6.77;4.53;;;19.70;99.90;;;;;;5028852;28;20472;-44
2022/07/13 04:22:30;;;;;;;5.30;4.90;;;19.80;99.90;;;;;;5042367;28;20443;-43
2022/07/13 04:24:55;;;;;;;5.00;4.60;;;19.80;99.90;;;;;;5030759;28;20425;-43
2022/07/13 04:27:21;;;;;;;5.03;4.63;;;19.80;99.90;;;;;;5049011;28;20181;-43
2022/07/13 04:29:47;;;;;;;6.10;4.60;;;19.80;99.90;;;;;;5049558;28;20254;-44
2022/07/13 04:32:12;;;;;;;5.00;4.60;;;19.80;99.90;;;;;;5049599;28;20197;-43
2022/07/13 04:34:38;;;;;;;4.83;4.43;;;19.80;99.90;;;;;;5049407;28;20198;-45
2022/07/13 04:37:04;;;;;;;4.47;4.00;;;19.80;99.90;;;;;;5048800;28;20213;-46
2022/07/13 04:39:30;;;;;;;4.47;4.17;;;19.80;99.90;;;;;;5049391;28;20194;-44
2022/07/13 04:41:55;;;;;;;5.00;4.10;;;19.90;99.90;;;;;;5049269;28;20208;-44
2022/07/13 04:44:21;;;;;;;4.20;3.80;;;19.90;99.90;;;;;;5049567;28;20428;-46
2022/07/13 04:46:47;;;;;;;4.27;3.97;;;19.90;99.90;;;;;;5048761;28;20201;-44
2022/07/13 04:49:13;;;;;;;4.00;3.50;;;20.00;99.90;;;;;;5049593;28;20208;-43
2022/07/13 04:51:39;;;;;;;3.97;3.57;;;20.00;99.90;;;;;;5041989;28;20198;-43
2022/07/13 04:54:05;;;;;;;4.10;3.80;;;20.00;99.90;;;;;;5043660;28;20806;-45
2022/07/13 04:56:30;;;;;;;3.87;3.57;;;20.10;99.90;;;;;;5041752;28;20259;-44
2022/07/13 04:58:56;;;;;;;4.00;3.70;;;20.10;99.90;;;;;;5041266;28;20959;-45
2022/07/13 05:01:22;;;;;;;3.20;3.00;;;20.20;99.90;;;;;;5043522;28;20194;-45
2022/07/13 05:03:47;;;;;;;3.90;3.50;;;20.30;99.90;;;;;;5037993;28;20647;-45
2022/07/13 05:06:14;;;;;;;4.23;3.63;;;20.30;99.90;;;;;;5032907;28;20293;-47
2022/07/13 05:08:40;;;;;;;3.60;3.30;;;20.40;99.90;;;;;;5032322;28;20186;-44
2022/07/13 05:11:08;;;;;;;4.60;3.10;;;20.40;99.90;;;;;;5046114;28;20980;-45
2022/07/13 05:13:33;;;;;;;6.57;3.40;;;20.50;99.90;;;;;;5042709;28;20429;-43
2022/07/13 05:15:59;;;;;;;3.70;3.40;;;20.60;99.90;;;;;;5052530;28;20474;-46
2022/07/13 05:18:25;;;;;;;3.33;3.10;;;20.70;99.90;;;;;;5044622;28;20268;-43
2022/07/13 05:20:51;;;;;;;3.30;3.00;;;20.70;99.90;;;;;;5035012;28;20677;-43
2022/07/13 05:23:16;;;;;;;4.17;3.40;;;20.80;99.90;;;;;;5042159;28;20561;-44
2022/07/13 05:25:42;;;;;;;4.00;3.03;;;20.80;99.90;;;;;;5032863;28;20206;-43
2022/07/13 05:28:08;;;;;;;3.20;3.00;;;20.80;99.90;;;;;;5033926;28;20187;-44
2022/07/13 05:30:33;;;;;;;3.33;3.13;;;20.90;99.90;;;;;;5045580;28;20928;-44
2022/07/13 05:32:59;;;;;;;2.90;2.70;;;20.90;99.90;;;;;;5046813;28;20209;-45
2022/07/13 05:35:26;;;;;;;4.47;2.60;;;20.90;99.90;;;;;;5045422;28;20197;-43
2022/07/13 05:37:51;;;;;;;3.00;2.80;;;21.00;99.90;;;;;;5036308;28;20190;-43
2022/07/13 05:40:17;;;;;;;3.37;3.03;;;21.10;99.90;;;;;;5032468;28;20418;-45
2022/07/13 05:42:43;;;;;;;2.80;2.37;;;21.20;99.90;;;;;;5032127;28;20183;-43
2022/07/13 05:45:09;;;;;;;2.90;2.70;;;21.20;99.90;;;;;;5032498;28;20201;-44
2022/07/13 05:47:35;;;;;;;5.20;2.50;;;21.30;99.90;;;;;;5031405;28;20194;-44
2022/07/13 05:50:00;;;;;;;3.70;2.87;;;21.30;99.90;;;;;;5050284;28;21112;-45
2022/07/13 05:52:26;;;;;;;3.10;2.80;;;21.40;99.90;;;;;;5036951;28;20194;-44
2022/07/13 05:54:53;;;;;;;3.00;2.57;;;21.40;99.90;;;;;;5032151;28;20183;-46
2022/07/13 05:57:18;;;;;;;2.43;2.13;;;21.50;99.90;;;;;;5043011;28;20607;-43
2022/07/13 05:59:44;;;;;;;3.00;2.80;;;21.50;99.90;;;;;;5043062;28;20425;-47
2022/07/13 06:02:10;;;;;;;2.40;2.20;;;21.50;99.90;;;;;;5031225;28;20633;-43
2022/07/13 06:04:38;;;;;;;2.73;2.13;;;21.50;99.90;;;;;;5032009;28;20179;-45
2022/07/13 06:07:03;;;;;;;5.63;2.80;;;21.60;99.90;;;;;;5030782;28;20464;-44
2022/07/13 06:09:29;;;;;;;2.20;2.10;;;21.70;99.90;;;;;;5036784;28;20417;-43
2022/07/13 06:11:54;;;;;;;5.20;2.53;;;21.70;99.90;;;;;;5048703;28;20693;-43
2022/07/13 06:14:20;;;;;;;2.43;2.30;;;21.90;99.90;;;;;;5031136;28;20194;-45
2022/07/13 06:16:46;;;;;;;3.00;2.40;;;22.00;99.90;;;;;;5034424;28;20213;-43
2022/07/13 06:19:12;;;;;;;5.10;2.67;;;22.20;99.90;;;;;;5040519;28;20248;-44
2022/07/13 06:21:37;;;;;;;4.53;2.50;;;22.30;99.90;;;;;;5038527;28;20264;-44
2022/07/13 06:24:03;;;;;;;2.60;2.40;;;22.50;99.90;;;;;;5039461;28;20433;-43
2022/07/13 06:26:30;;;;;;;4.20;2.50;;;22.60;99.90;;;;;;5051404;28;20216;-45
2022/07/13 06:28:56;;;;;;;3.50;2.50;;;22.60;99.90;;;;;;5051101;28;20432;-43
2022/07/13 06:31:21;;;;;;;2.63;2.43;;;22.60;99.90;;;;;;5051448;28;20923;-41
2022/07/13 06:33:51;;;;;;;2.60;2.40;;;22.60;99.90;;;;;;5051327;28;20205;-42
2022/07/13 06:36:18;;;;;;;2.63;2.43;;;22.70;99.90;;;;;;5050980;28;20206;-41
2022/07/13 06:38:43;;;;;;;3.07;2.87;;;22.90;99.90;;;;;;5050777;28;20815;-41
2022/07/13 06:41:09;;;;;;;2.83;2.63;;;23.10;99.90;;;;;;5051155;28;20429;-41
2022/07/13 06:43:35;;;;;;;2.43;2.20;;;23.20;99.90;;;;;;5040404;28;20191;-43
2022/07/13 06:46:01;;;;;;;2.70;2.50;;;23.30;99.90;;;;;;5047041;28;20194;-46
2022/07/13 06:48:26;;;;;;;2.53;2.27;;;23.40;99.90;;;;;;5050496;28;20746;-43
2022/07/13 06:50:52;;;;;;;2.50;2.30;;;23.40;99.90;;;;;;5048078;28;20432;-45
2022/07/13 06:53:18;;;;;;;3.10;2.80;;;23.40;99.90;;;;;;5031222;28;20186;-46
2022/07/13 06:55:44;;;;;;;3.93;2.60;;;23.40;99.90;;;;;;5030931;28;20696;-43
2022/07/13 06:58:09;;;;;;;2.97;2.70;;;23.40;99.90;;;;;;5030477;28;20186;-44
2022/07/13 07:00:35;;;;;;;3.70;2.57;;;23.50;99.90;;;;;;5030836;28;20710;-45
2022/07/13 07:03:01;;;;;;;3.20;2.70;;;23.50;99.90;;;;;;5038425;28;20190;-43
2022/07/13 07:05:26;;;;;;;2.37;2.20;;;23.60;99.90;;;;;;5043187;28;20193;-43
2022/07/13 07:07:52;;;;;;;3.63;2.27;;;23.70;99.90;;;;;;5037208;28;20190;-48
2022/07/13 07:10:18;;;;;;;5.43;2.63;;;23.70;99.90;;;;;;5048003;28;20192;-43
2022/07/13 07:12:44;;;;;;;2.47;2.27;;;23.80;99.90;;;;;;5029952;28;21069;-44
2022/07/13 07:15:10;;;;;;;2.57;2.30;;;23.80;99.70;;;;;;5029802;28;20198;-44
2022/07/13 07:17:48;;;;;;;2.70;2.50;;;23.80;99.90;;;;;;5029613;28;20699;-43
2022/07/13 07:20:15;;;;;;;2.73;2.37;;;23.80;99.90;;;;;;5029832;28;20515;-43
2022/07/13 07:22:41;;;;;;;5.40;2.40;;;23.80;99.50;;;;;;5041331;28;20429;-44
2022/07/13 07:25:07;;;;;;;2.27;2.07;;;23.90;99.50;;;;;;5033054;28;20428;-44
2022/07/13 07:27:33;;;;;;;2.97;2.20;;;23.90;99.40;;;;;;5049849;28;20193;-45
2022/07/13 07:29:59;;;;;;;2.97;2.30;;;24.00;99.20;;;;;;5050256;28;20435;-44
2022/07/13 07:32:25;;;;;;;5.50;2.80;;;24.00;98.90;;;;;;5050169;28;20439;-44
2022/07/13 07:34:50;;;;;;;3.53;2.50;;;24.10;99.10;;;;;;5050022;28;20205;-44
2022/07/13 07:37:20;;;;;;;3.30;2.17;;;24.10;99.10;;;;;;5048051;28;20596;-43
2022/07/13 07:39:46;;;;;;;3.37;2.43;;;24.20;98.50;;;;;;5050121;28;20182;-44
2022/07/13 07:42:12;;;;;;;2.93;2.63;;;24.30;98.90;;;;;;5050093;28;20422;-44
2022/07/13 07:44:38;;;;;;;2.30;2.10;;;24.40;99.10;;;;;;5050155;28;20551;-47
2022/07/13 07:47:04;;;;;;;3.10;2.60;;;24.40;98.70;;;;;;5049212;28;20239;-43
2022/07/13 07:49:29;;;;;;;3.00;2.70;;;24.40;98.50;;;;;;5049952;28;20255;-46
2022/07/13 07:51:55;;;;;;;4.10;2.67;;;24.50;98.40;;;;;;5038639;28;20594;-44
2022/07/13 07:54:21;;;;;;;2.70;2.50;;;24.50;98.40;;;;;;5030299;28;20198;-46
2022/07/13 07:56:46;;;;;;;2.53;2.33;;;24.60;98.40;;;;;;5029300;28;20217;-46
2022/07/13 07:59:12;;;;;;;3.03;2.20;;;24.70;99.30;;;;;;5030066;28;20204;-44
2022/07/13 08:01:38;;;;;;;3.57;2.70;;;24.90;96.70;;;;;;5029839;28;20610;-44
2022/07/13 08:04:04;;;;;;;2.93;2.37;;;25.00;97.00;;;;;;5030227;28;20194;-47
2022/07/13 08:06:30;;;;;;;3.47;3.00;;;25.10;96.80;;;;;;5029683;28;20800;-48
2022/07/13 08:08:55;;;;;;;2.90;2.63;;;25.20;96.00;;;;;;5029475;28;20209;-43
2022/07/13 08:11:21;;;;;;;2.60;2.40;;;25.20;95.80;;;;;;5029910;28;20198;-43
2022/07/13 08:13:47;;;;;;;5.80;2.50;;;25.20;95.70;;;;;;5029856;28;20194;-45
2022/07/13 08:16:15;;;;;;;4.27;2.50;;;25.20;96.10;;;;;;5029686;28;20222;-45
2022/07/13 08:18:40;;;;;;;3.13;2.57;;;25.20;96.10;;;;;;5028175;28;20463;-43
2022/07/13 08:21:07;;;;;;;2.57;2.20;;;25.30;96.20;;;;;;5036704;28;21075;-43
2022/07/13 08:26:19;;;;;;;2.43;2.23;;;25.40;96.00;;;;;;5041261;28;20424;-44
2022/07/13 08:28:45;;;;;;;2.70;2.50;;;25.40;95.90;;;;;;5048893;28;20457;-44
2022/07/13 08:31:11;;;;;;;3.87;2.73;;;25.50;95.80;;;;;;5049622;28;20527;-46
2022/07/13 08:39:07;;;;;;;4.47;2.87;;;25.40;95.20;;;;;;5053277;28;20821;-44
2022/07/13 08:41:33;;;;;;;2.23;2.03;;;25.40;95.80;;;;;;5053400;28;20424;-42
2022/07/13 08:44:00;;;;;;;3.50;2.77;;;25.40;95.70;;;;;;5053357;28;20432;-45
2022/07/13 08:46:26;;;;;;;3.10;2.80;;;25.40;95.80;;;;;;5053382;28;20192;-43
2022/07/13 08:48:55;;;;;;;2.80;2.60;;;25.40;96.10;;;;;;5052309;28;20424;-46
2022/07/13 08:51:21;;;;;;;2.60;2.37;;;25.40;96.40;;;;;;5047198;28;20894;-46
2022/07/13 08:53:48;;;;;;;3.40;2.80;;;25.50;96.10;;;;;;5033028;28;20432;-44
2022/07/13 08:56:14;;;;;;;4.90;2.90;;;25.40;96.50;;;;;;5033128;28;21006;-45
2022/07/13 08:58:40;;;;;;;3.07;2.77;;;25.50;96.20;;;;;;5032655;28;20482;-43
2022/07/13 09:01:10;;;;;;;4.47;3.13;;;25.50;96.10;;;;;;5033077;28;20780;-43
2022/07/13 09:06:58;;;;;;;5.90;2.93;;;25.50;95.90;;;;;;5046563;28;20540;-46
2022/07/13 09:09:35;;;;;;;3.60;3.07;;;25.60;96.50;;;;;;5052973;28;20444;-44
2022/07/13 09:12:16;;;;;;;3.90;2.90;;;25.70;96.40;;;;;;5052895;28;20189;-44
2022/07/13 09:14:44;;;;;;;3.20;2.90;;;25.80;96.50;;;;;;5052646;28;21295;-41
2022/07/13 09:17:29;;;;;;;5.57;3.00;;;25.80;96.60;;;;;;5052218;28;20460;-42
2022/07/13 09:19:55;;;;;;;6.17;3.13;;;25.90;96.10;;;;;;5051714;28;20418;-41
2022/07/13 09:22:21;;;;;;;3.17;2.87;;;25.90;96.10;;;;;;5052327;28;20938;-41
2022/07/13 09:24:48;;;;;;;3.47;2.60;;;25.90;95.50;;;;;;5032604;28;20418;-43
2022/07/13 09:27:15;;;;;;;6.00;2.80;;;25.90;95.50;;;;;;5051731;28;20189;-49
2022/07/13 09:29:42;;;;;;;3.20;2.90;;;26.00;95.60;;;;;;5052458;28;20949;-41
2022/07/13 09:32:11;;;;;;;4.50;3.50;;;26.00;95.40;;;;;;5052625;28;20430;-43
2022/07/13 09:34:52;;;;;;;4.93;3.30;;;26.00;96.20;;;;;;5052371;28;20502;-41
2022/07/13 09:37:22;;;;;;;6.33;3.07;;;26.10;96.70;;;;;;5051583;28;20464;-43
2022/07/13 09:40:00;;;;;;;5.77;3.30;;;26.10;95.90;;;;;;5052171;28;20428;-41
2022/07/13 09:42:30;;;;;;;3.87;3.50;;;26.20;95.60;;;;;;5052271;28;20982;-43
2022/07/13 09:47:55;;;;;;;4.37;3.10;;;26.30;95.30;;;;;;5051460;28;20452;-41
2022/07/13 09:50:23;;;;;;;3.53;2.87;;;26.30;95.50;;;;;;5052061;28;20458;-41
2022/07/13 09:52:50;;;;;;;5.40;2.90;;;26.30;95.60;;;;;;5033991;28;20521;-42
2022/07/13 09:55:22;;;;;;;5.83;3.90;;;26.30;96.20;;;;;;5032214;28;20842;-42
2022/07/13 09:57:55;;;;;;;4.90;3.27;;;26.30;95.80;;;;;;5031345;28;20632;-41
2022/07/13 10:00:22;;;;;;;3.70;2.90;;;26.40;95.90;;;;;;5031795;28;20512;-45
2022/07/13 10:02:49;;;;;;;3.03;2.80;;;26.40;95.70;;;;;;5031999;28;20425;-43
2022/07/13 10:05:17;;;;;;;5.07;2.73;;;26.40;94.60;;;;;;5031843;28;20425;-47
2022/07/13 10:07:45;;;;;;;3.80;3.23;;;26.40;94.30;;;;;;5031381;28;20970;-43
2022/07/13 10:10:15;;;;;;;3.40;3.10;;;26.50;94.60;;;;;;5031764;28;20425;-44
2022/07/13 10:12:42;;;;;;;7.10;3.60;;;26.50;94.70;;;;;;5031899;28;20425;-43
2022/07/13 10:15:11;;;;;;;4.27;3.00;;;26.50;95.30;;;;;;5030277;28;20429;-45
2022/07/13 10:17:38;;;;;;;5.80;2.90;;;26.40;95.40;;;;;;5031037;28;20465;-51
2022/07/13 10:20:17;;;;;;;4.70;3.30;;;26.50;95.50;;;;;;5030435;28;20474;-44
2022/07/13 10:22:48;;;;;;;4.93;3.07;;;26.60;95.10;;;;;;5042721;28;20433;-48
2022/07/13 10:25:15;;;;;;;4.60;3.13;;;26.50;95.40;;;;;;5033959;28;20428;-43
2022/07/13 10:27:41;;;;;;;4.83;2.93;;;26.60;95.90;;;;;;5050422;28;20436;-44
2022/07/13 10:30:24;;;;;;;3.83;3.47;;;26.70;94.70;;;;;;5051385;28;20930;-45
2022/07/13 10:32:50;;;;;;;3.87;3.57;;;26.70;94.70;;;;;;5049940;28;21002;-44
2022/07/13 10:35:17;;;;;;;5.80;3.17;;;26.70;94.80;;;;;;5051333;28;20985;-44
2022/07/13 10:38:03;;;;;;;5.13;3.17;;;26.70;94.90;;;;;;5050449;28;20471;-46
2022/07/13 10:40:29;;;;;;;3.63;3.07;;;26.70;95.00;;;;;;5050469;28;20431;-47
2022/07/13 10:43:03;;;;;;;6.97;3.27;;;26.80;94.70;;;;;;5050968;28;20523;-46
2022/07/13 10:45:32;;;;;;;3.50;2.90;;;26.80;94.90;;;;;;5051203;28;20444;-45
2022/07/13 10:47:59;;;;;;;4.70;2.93;;;26.80;94.40;;;;;;5050201;28;20420;-45
2022/07/13 10:50:36;;;;;;;3.27;2.50;;;26.90;94.20;;;;;;5050835;28;20424;-50
2022/07/13 10:53:02;;;;;;;5.43;2.70;;;26.90;94.50;;;;;;5030853;28;20428;-46
2022/07/13 10:55:35;;;;;;;3.40;2.60;;;27.00;94.00;;;;;;5030943;28;20433;-49
2022/07/13 10:58:29;;;;;;;5.53;2.97;;;27.10;94.70;;;;;;5029405;28;20478;-46
2022/07/13 11:00:55;;;;;;;4.30;3.07;;;27.20;94.50;;;;;;5036264;28;20425;-46
2022/07/13 11:03:29;;;;;;;4.27;3.10;;;27.20;94.50;;;;;;5030828;28;20479;-44
2022/07/13 11:06:12;;;;;;;4.60;3.03;;;27.20;94.80;;;;;;5030850;28;20456;-41
2022/07/13 11:08:38;;;;;;;4.20;2.90;;;27.30;94.00;;;;;;5028611;28;20459;-41
2022/07/13 11:11:15;;;;;;;6.13;2.73;;;27.20;94.70;;;;;;5030817;28;20431;-41
2022/07/13 11:13:44;;;;;;;3.10;2.80;;;27.20;94.70;;;;;;5036921;28;20463;-45
2022/07/13 11:16:10;;;;;;;3.33;2.73;;;27.20;94.20;;;;;;5040590;28;20466;-43
2022/07/13 11:18:41;;;;;;;3.27;2.97;;;27.20;95.30;;;;;;5032246;28;20420;-43
2022/07/13 11:21:15;;;;;;;4.43;3.10;;;27.10;94.50;;;;;;5053767;28;21014;-42
2022/07/13 11:26:51;;;;;;;5.03;3.27;;;27.20;95.10;;;;;;5043387;28;20433;-41
2022/07/13 11:29:45;;;;;;;4.33;2.73;;;27.00;95.00;;;;;;5050219;28;20432;-44
2022/07/13 11:32:10;;;;;;;3.73;3.43;;;27.10;95.40;;;;;;5039638;28;20416;-40
2022/07/13 11:34:36;;;;;;;4.70;2.93;;;27.00;95.40;;;;;;5045542;28;20812;-41
2022/07/13 11:37:03;;;;;;;4.03;3.33;;;27.00;95.30;;;;;;5048252;28;20284;-41
2022/07/13 11:39:30;;;;;;;3.67;3.03;;;26.90;95.60;;;;;;5038219;28;20417;-41
2022/07/13 11:41:58;;;;;;;7.90;3.30;;;26.90;95.60;;;;;;5040072;28;20972;-42
2022/07/13 11:44:26;;;;;;;2.63;2.43;;;26.80;95.60;;;;;;5042148;28;20463;-42
2022/07/13 11:46:54;;;;;;;5.17;2.97;;;26.80;95.50;;;;;;5040323;28;20802;-43
2022/07/13 11:49:20;;;;;;;5.57;3.07;;;26.80;95.40;;;;;;5029949;28;21074;-43
2022/07/13 11:51:46;;;;;;;4.80;3.20;;;26.80;95.60;;;;;;5032993;28;20433;-41
2022/07/13 11:54:15;;;;;;;4.87;2.57;;;26.70;96.10;;;;;;5030092;28;20770;-42
2022/07/13 11:56:53;;;;;;;3.70;2.70;;;26.80;96.30;;;;;;5029503;28;20468;-44
2022/07/13 11:59:38;;;;;;;3.33;2.73;;;27.00;97.80;;;;;;5028523;28;20427;-41
2022/07/13 12:02:07;;;;;;;3.37;3.17;;;27.10;96.50;;;;;;5035269;28;20500;-42
2022/07/13 12:04:33;;;;;;;3.67;2.70;;;27.20;96.90;;;;;;5038224;28;20507;-42
2022/07/13 12:07:19;;;;;;;3.33;3.03;;;27.30;97.00;;;;;;5047205;28;20519;-41
2022/07/13 12:09:57;;;;;;;3.63;2.70;;;27.30;96.20;;;;;;5035734;28;20466;-41
2022/07/13 12:12:34;;;;;;;2.73;2.33;;;27.40;95.50;;;;;;5043406;28;20427;-42
2022/07/13 12:15:00;;;;;;;6.00;2.73;;;27.40;95.70;;;;;;5041986;28;20431;-40
2022/07/13 12:17:27;;;;;;;3.60;2.67;;;27.40;95.80;;;;;;5038576;28;20460;-42
2022/07/13 12:20:14;;;;;;;5.50;2.50;;;27.40;95.80;;;;;;5046336;28;20434;-44
2022/07/13 12:22:40;;;;;;;3.90;2.87;;;27.50;95.50;;;;;;5050630;28;20504;-41
2022/07/13 12:25:07;;;;;;;3.07;2.77;;;27.50;95.60;;;;;;5036409;28;20511;-41
2022/07/13 12:27:33;;;;;;;3.07;2.37;;;27.50;95.20;;;;;;5051976;28;20851;-40
2022/07/13 12:30:11;;;;;;;3.97;2.60;;;27.50;95.20;;;;;;5053677;28;20430;-41
2022/07/13 12:33:10;;;;;;;3.70;3.00;;;27.50;95.20;;;;;;5053269;28;20415;-41
2022/07/13 12:35:38;;;;;;;4.80;3.73;;;27.60;97.00;;;;;;5053477;28;20428;-41
2022/07/13 12:38:08;;;;;;;3.13;2.93;;;27.80;96.30;;;;;;5052802;28;20463;-46
2022/07/13 12:40:53;;;;;;;3.30;3.00;;;27.90;96.00;;;;;;5053483;28;20432;-46
2022/07/13 12:43:21;;;;;;;3.67;2.70;;;27.90;95.30;;;;;;5053422;28;20508;-47
2022/07/13 12:45:50;;;;;;;4.37;3.07;;;27.90;95.10;;;;;;5049137;28;20428;-44
2022/07/13 12:48:18;;;;;;;3.93;2.50;;;27.90;94.00;;;;;;5033630;28;20432;-43
2022/07/13 12:51:05;;;;;;;3.87;3.03;;;27.80;94.00;;;;;;5037928;28;20428;-45
2022/07/13 12:53:53;;;;;;;4.60;2.80;;;27.80;93.90;;;;;;5050850;28;20769;-44
2022/07/13 12:56:25;;;;;;;3.03;2.70;;;27.80;94.70;;;;;;5031880;28;20456;-44
2022/07/13 12:58:55;;;;;;;5.93;3.30;;;27.80;94.60;;;;;;5032494;28;20884;-44
2022/07/13 13:01:37;;;;;;;7.47;3.40;;;27.80;95.30;;;;;;5033221;28;20985;-43
2022/07/13 13:04:09;;;;;;;6.70;2.73;;;27.80;94.80;;;;;;5033054;28;20428;-43
2022/07/13 13:06:36;;;;;;;3.80;3.40;;;27.80;95.80;;;;;;5032435;28;20453;-43
2022/07/13 13:09:10;;;;;;;5.60;2.90;;;28.00;96.40;;;;;;5031703;28;21235;-43